createdAt,value
2023-04-16T00:02:20.313Z,1.70
2023-04-16T00:07:23.524Z,1.53
2023-04-16T00:12:28.081Z,1.10
2023-04-16T00:17:31.231Z,1.53
2023-04-16T00:22:34.430Z,1.47
2023-04-16T00:27:39.066Z,1.17
2023-04-16T00:32:42.333Z,1.43
2023-04-16T00:37:45.729Z,1.17
2023-04-16T00:42:50.603Z,1.70
2023-04-16T00:47:53.969Z,1.93
2023-04-16T00:52:58.170Z,1.87
2023-04-16T00:58:02.869Z,2.67
2023-04-16T01:03:06.790Z,2.50
2023-04-16T01:08:17.170Z,2.00
2023-04-16T01:13:21.791Z,1.80
2023-04-16T01:18:25.321Z,1.97
2023-04-16T01:23:29.879Z,2.20
2023-04-16T01:28:33.556Z,1.80
2023-04-16T01:33:36.716Z,1.40
2023-04-16T01:38:41.471Z,1.53
2023-04-16T01:43:44.644Z,2.27
2023-04-16T01:48:48.512Z,2.33
2023-04-16T01:53:53.006Z,2.87
2023-04-16T01:58:56.187Z,2.77
2023-04-16T02:04:01.152Z,3.53
2023-04-16T02:09:06.036Z,4.00
2023-04-16T02:14:09.832Z,5.60
2023-04-16T02:19:13.168Z,5.80
2023-04-16T02:24:19.286Z,5.47
2023-04-16T02:29:22.635Z,5.30
2023-04-16T02:34:34.598Z,5.63
2023-04-16T02:39:39.502Z,7.33
2023-04-16T02:44:42.905Z,6.30
2023-04-16T02:49:46.436Z,6.30
2023-04-16T02:54:51.213Z,6.10
2023-04-16T02:59:54.518Z,6.23
2023-04-16T03:04:57.929Z,4.73
2023-04-16T03:10:02.608Z,4.87
2023-04-16T03:15:06.605Z,4.93
2023-04-16T03:20:11.510Z,4.50
2023-04-16T03:25:16.078Z,4.57
2023-04-16T03:30:19.245Z,5.00
2023-04-16T03:35:22.630Z,4.40
2023-04-16T03:40:27.384Z,3.97
2023-04-16T03:45:31.304Z,3.53
2023-04-16T03:50:34.821Z,3.73
2023-04-16T03:55:42.235Z,3.37
2023-04-16T04:00:46.818Z,3.70
2023-04-16T04:05:51.848Z,3.30
2023-04-16T04:11:02.841Z,3.20
2023-04-16T04:16:07.793Z,3.30
2023-04-16T04:21:11.438Z,4.03
2023-04-16T04:26:16.523Z,3.93
2023-04-16T04:31:19.982Z,3.80
2023-04-16T04:36:23.669Z,4.20
2023-04-16T04:41:29.384Z,3.97
2023-04-16T04:46:32.667Z,3.90
2023-04-16T04:51:36.217Z,3.43
2023-04-16T04:56:41.393Z,3.67
2023-04-16T05:01:44.752Z,3.40
2023-04-16T05:06:47.931Z,2.90
2023-04-16T05:11:52.608Z,2.70
2023-04-16T05:16:56.502Z,2.90
2023-04-16T05:21:59.734Z,2.83
2023-04-16T05:27:04.539Z,3.30
2023-04-16T05:32:08.515Z,3.30
2023-04-16T05:37:12.135Z,3.73
2023-04-16T05:42:17.236Z,4.20
2023-04-16T05:47:21.494Z,4.90
2023-04-16T05:52:25.122Z,4.20
2023-04-16T05:57:30.170Z,4.57
2023-04-16T06:02:33.455Z,5.33
2023-04-16T06:07:36.871Z,4.90
2023-04-16T06:12:41.732Z,3.90
2023-04-16T06:17:45.847Z,4.80
2023-04-16T06:22:49.086Z,4.53
2023-04-16T06:27:53.826Z,4.00
2023-04-16T06:32:57.047Z,8.43
2023-04-16T06:38:00.245Z,4.30
2023-04-16T06:43:04.942Z,4.10
2023-04-16T06:48:08.247Z,5.10
2023-04-16T06:53:11.390Z,4.40
2023-04-16T06:58:16.219Z,4.40
2023-04-16T07:03:20.556Z,3.73
2023-04-16T07:08:24.727Z,4.30
2023-04-16T07:13:29.669Z,4.47
2023-04-16T07:18:33.032Z,4.30
2023-04-16T07:23:36.640Z,3.23
2023-04-16T07:28:42.084Z,3.60
2023-04-16T07:33:45.520Z,3.67
2023-04-16T07:38:49.600Z,4.07
2023-04-16T07:43:55.285Z,3.67
2023-04-16T07:48:58.505Z,4.60
2023-04-16T07:54:02.130Z,5.17
2023-04-16T07:59:21.181Z,4.40
2023-04-16T08:04:26.515Z,3.30
2023-04-16T08:09:30.196Z,4.70
2023-04-16T08:14:34.728Z,5.30
2023-04-16T08:19:37.850Z,4.87
2023-04-16T08:24:42.090Z,5.30
2023-04-16T08:29:46.978Z,4.70
2023-04-16T08:34:51.385Z,5.13
2023-04-16T08:39:55.518Z,5.07
2023-04-16T08:45:10.269Z,7.97
2023-04-16T08:50:15.664Z,6.07
2023-04-16T08:55:23.451Z,5.90
2023-04-16T09:00:29.648Z,4.80
2023-04-16T09:05:34.394Z,8.73
2023-04-16T09:10:37.620Z,4.90
2023-04-16T09:15:42.760Z,5.80
2023-04-16T09:20:46.093Z,7.63
2023-04-16T09:25:49.313Z,5.50
2023-04-16T09:31:09.404Z,7.27
2023-04-16T09:36:12.802Z,5.20
2023-04-16T09:41:17.416Z,8.90
2023-04-16T09:46:22.394Z,8.50
2023-04-16T09:51:26.976Z,5.90
2023-04-16T09:56:30.591Z,4.27
2023-04-16T10:01:35.338Z,5.53
2023-04-16T10:06:38.605Z,14.73
2023-04-16T10:11:42.986Z,8.73
2023-04-16T10:16:47.954Z,12.50
2023-04-16T10:21:51.300Z,15.97
2023-04-16T10:26:54.753Z,18.03
2023-04-16T10:32:00.699Z,6.00
2023-04-16T10:37:04.203Z,9.03
2023-04-16T10:42:12.768Z,12.03
2023-04-16T10:47:18.847Z,5.57
2023-04-16T10:52:24.945Z,3.00
2023-04-16T10:57:30.456Z,1.80
2023-04-16T11:02:35.842Z,1.80
2023-04-16T11:07:49.686Z,2.20
2023-04-16T11:12:55.823Z,1.53
2023-04-16T11:18:00.986Z,2.90
2023-04-16T11:23:05.063Z,1.90
2023-04-16T11:28:08.762Z,3.53
2023-04-16T11:33:14.543Z,2.57
2023-04-16T11:38:19.808Z,5.30
2023-04-16T11:43:27.810Z,4.23
2023-04-16T11:48:51.546Z,4.93
2023-04-16T11:53:56.419Z,5.90
2023-04-16T11:59:10.279Z,6.10
2023-04-16T12:04:17.413Z,5.30
2023-04-16T12:09:27.107Z,5.13
2023-04-16T12:14:33.441Z,5.90
2023-04-16T12:19:52.342Z,6.00
2023-04-16T12:25:00.516Z,5.93
2023-04-16T12:30:08.966Z,6.60
2023-04-16T12:35:16.364Z,7.77
2023-04-16T12:40:25.348Z,8.40
2023-04-16T12:45:28.783Z,8.83
2023-04-16T12:50:33.962Z,8.17
2023-04-16T12:55:38.507Z,9.40
2023-04-16T13:00:42.351Z,8.60
2023-04-16T13:05:48.147Z,8.50
2023-04-16T13:10:51.626Z,8.23
2023-04-16T13:15:55.130Z,7.87
2023-04-16T13:21:00.682Z,9.67
2023-04-16T13:26:04.271Z,8.00
2023-04-16T13:31:07.824Z,8.63
2023-04-16T13:36:12.838Z,9.00
2023-04-16T13:41:16.591Z,9.50
2023-04-16T13:46:21.368Z,9.60
2023-04-16T13:51:27.262Z,7.90
2023-04-16T13:56:30.960Z,9.10
2023-04-16T14:01:34.884Z,9.50
2023-04-16T14:06:40.773Z,7.73
2023-04-16T14:11:45.268Z,8.30
2023-04-16T14:16:49.205Z,7.53
2023-04-16T14:21:54.413Z,7.73
2023-04-16T14:26:58.773Z,8.30
2023-04-16T14:32:02.267Z,7.70
2023-04-16T14:37:07.034Z,8.87
2023-04-16T14:42:10.422Z,7.80
2023-04-16T14:47:14.251Z,7.50
2023-04-16T14:52:19.273Z,8.67
2023-04-16T14:57:22.694Z,8.80
2023-04-16T15:02:26.455Z,10.67
2023-04-16T15:07:31.612Z,10.57
2023-04-16T15:12:34.718Z,11.00
2023-04-16T15:17:38.110Z,9.90
2023-04-16T15:22:42.869Z,10.60
2023-04-16T15:27:46.275Z,10.77
2023-04-16T15:32:49.634Z,11.10
2023-04-16T15:37:55.383Z,11.47
2023-04-16T15:42:58.517Z,10.70
2023-04-16T15:48:02.231Z,11.30
2023-04-16T15:53:07.313Z,10.60
2023-04-16T15:58:12.938Z,10.50
2023-04-16T16:03:16.922Z,10.53
2023-04-16T16:08:21.779Z,10.60
2023-04-16T16:13:25.860Z,11.10
2023-04-16T16:18:29.513Z,12.23
2023-04-16T16:23:33.938Z,11.40
2023-04-16T16:28:38.140Z,11.27
2023-04-16T16:33:41.597Z,12.50
2023-04-16T16:38:49.470Z,11.60
2023-04-16T16:43:55.842Z,12.10
2023-04-16T16:48:59.216Z,12.00
2023-04-16T16:54:03.663Z,10.77
2023-04-16T16:59:06.987Z,11.17
2023-04-16T17:04:11.532Z,11.27
2023-04-16T17:09:34.819Z,10.00
2023-04-16T17:14:37.968Z,11.70
2023-04-16T17:19:41.141Z,11.17
2023-04-16T17:24:48.525Z,10.60
2023-04-16T17:29:52.944Z,11.53
2023-04-16T17:35:00.168Z,13.03
2023-04-16T17:40:08.094Z,11.50
2023-04-16T17:45:17.154Z,14.23
2023-04-16T17:50:20.572Z,14.87
2023-04-16T17:55:27.125Z,11.60
2023-04-16T18:00:30.868Z,13.70
2023-04-16T18:05:34.245Z,16.40
2023-04-16T18:10:39.731Z,13.67
2023-04-16T18:15:45.348Z,15.80
2023-04-16T18:20:49.492Z,11.40
2023-04-16T18:25:54.623Z,8.00
2023-04-16T18:30:59.087Z,10.23
2023-04-16T18:36:06.764Z,10.03
2023-04-16T18:41:18.525Z,11.50
2023-04-16T18:46:27.718Z,10.57
2023-04-16T18:51:33.997Z,9.73
2023-04-16T18:56:38.946Z,9.73
2023-04-16T19:01:47.101Z,9.40
2023-04-16T19:06:51.632Z,9.47
2023-04-16T19:12:03.121Z,8.70
2023-04-16T19:17:12.431Z,9.17
2023-04-16T19:22:16.010Z,11.03
2023-04-16T19:27:21.586Z,8.60
2023-04-16T19:32:26.025Z,11.37
2023-04-16T19:37:29.880Z,11.43
2023-04-16T19:42:39.168Z,10.60
2023-04-16T19:47:43.680Z,9.73
2023-04-16T19:52:51.229Z,11.17
2023-04-16T19:58:05.564Z,10.50
2023-04-16T20:03:11.018Z,10.00
2023-04-16T20:08:14.280Z,10.63
2023-04-16T20:13:18.924Z,9.57
2023-04-16T20:18:22.236Z,8.80
2023-04-16T20:23:25.749Z,9.23
2023-04-16T20:28:30.382Z,9.83
2023-04-16T20:33:33.884Z,10.70
2023-04-16T20:38:37.660Z,9.53
2023-04-16T20:43:43.185Z,11.23
2023-04-16T20:48:46.620Z,10.57
2023-04-16T20:53:52.164Z,10.63
2023-04-16T20:58:57.558Z,10.30
2023-04-16T21:04:00.939Z,11.07
2023-04-16T21:09:07.120Z,10.37
2023-04-16T21:14:14.913Z,11.60
2023-04-16T21:19:18.055Z,11.97
2023-04-16T21:24:21.305Z,10.90
2023-04-16T21:29:25.890Z,10.90
2023-04-16T21:34:29.253Z,11.77
2023-04-16T21:39:32.500Z,12.80
2023-04-16T21:44:37.106Z,11.10
2023-04-16T21:49:42.253Z,11.53
2023-04-16T21:54:45.812Z,10.90
2023-04-16T21:59:50.660Z,11.60
2023-04-16T22:04:53.952Z,12.20
2023-04-16T22:09:57.180Z,12.27
2023-04-16T22:15:03.231Z,12.40
2023-04-16T22:20:09.358Z,11.83
2023-04-16T22:25:12.718Z,11.40
2023-04-16T22:30:17.666Z,11.70
2023-04-16T22:35:20.885Z,11.50
2023-04-16T22:40:24.133Z,11.70
2023-04-16T22:45:28.701Z,10.63
2023-04-16T22:50:32.557Z,11.63
2023-04-16T22:55:35.736Z,12.73
2023-04-16T23:00:40.497Z,12.13
2023-04-16T23:05:43.722Z,13.10
2023-04-16T23:10:46.914Z,11.77
2023-04-16T23:15:51.570Z,11.97
2023-04-16T23:20:55.061Z,12.67
2023-04-16T23:25:58.238Z,11.50
2023-04-16T23:31:04.212Z,12.20
2023-04-16T23:36:10.265Z,12.13
2023-04-16T23:41:13.517Z,12.70
2023-04-16T23:46:18.052Z,11.80
2023-04-16T23:51:21.206Z,13.57
2023-04-16T23:56:24.348Z,13.33
